Weather at Bangor International Airport

Public forecast

Using degrees Fahrenheit for public forecast. Weather courtesy of forecast.io.

Current aviation weather report (METAR) for Bangor International Airport

Retrieved 2020/09/30 09:05 UTC (4 minutes ago):

KBGR 300905Z 14011KT 8SM -RA OVC004 19/18 A2963 RMK AO2 CIG 003V007 P0000 T01940183

Aviation forecast (TAF) for Bangor International Airport

Retrieved 2020/09/30 06:36 UTC (3 hours ago):

TAF KBGR 300534Z 3006/0106 16007KT 6SM -SHRA OVC005 WS020/18040KT FM301100 18016G26KT 5SM -RA OVC005 WS020/19060KT FM301500 19021G35KT 2SM RA OVC007 WS020/19065KT FM301700 21014G25KT 3SM -RA OVC015 WS020/20060KT FM301800 22011KT 5SM -RA OVC045 WS020/21055KT FM302000 24009KT 6SM -SHRA BKN040 FM302100 25008KT P6SM VCSH BKN050 FM302300 22007KT P6SM SCT080